sensor_id;sensor_type;location;lat;lon;timestamp;P1;durP1;ratioP1;P2;durP2;ratioP2
32038;SDS011;18549;42.286;22.688;2023-04-25T00:02:20;6.40;;;4.55;;
32038;SDS011;18549;42.286;22.688;2023-04-25T00:04:47;6.70;;;5.15;;
32038;SDS011;18549;42.286;22.688;2023-04-25T00:07:14;4.22;;;3.80;;
32038;SDS011;18549;42.286;22.688;2023-04-25T00:09:43;10.38;;;5.82;;
32038;SDS011;18549;42.286;22.688;2023-04-25T00:12:10;7.53;;;4.43;;
32038;SDS011;18549;42.286;22.688;2023-04-25T00:14:37;9.77;;;4.97;;
32038;SDS011;18549;42.286;22.688;2023-04-25T00:17:04;4.60;;;3.97;;
32038;SDS011;18549;42.286;22.688;2023-04-25T00:19:31;8.88;;;3.92;;
32038;SDS011;18549;42.286;22.688;2023-04-25T00:21:59;4.82;;;3.55;;
32038;SDS011;18549;42.286;22.688;2023-04-25T00:24:26;4.60;;;3.20;;
32038;SDS011;18549;42.286;22.688;2023-04-25T00:26:55;4.82;;;3.42;;
32038;SDS011;18549;42.286;22.688;2023-04-25T00:29:21;4.43;;;3.73;;
32038;SDS011;18549;42.286;22.688;2023-04-25T00:31:48;4.87;;;3.92;;
32038;SDS011;18549;42.286;22.688;2023-04-25T00:34:15;5.75;;;3.58;;
32038;SDS011;18549;42.286;22.688;2023-04-25T00:36:42;4.90;;;3.30;;
32038;SDS011;18549;42.286;22.688;2023-04-25T00:39:08;9.23;;;4.20;;
32038;SDS011;18549;42.286;22.688;2023-04-25T00:41:35;6.87;;;3.35;;
32038;SDS011;18549;42.286;22.688;2023-04-25T00:44:04;4.57;;;4.18;;
32038;SDS011;18549;42.286;22.688;2023-04-25T00:46:33;7.15;;;3.97;;
32038;SDS011;18549;42.286;22.688;2023-04-25T00:49:00;11.35;;;6.07;;
32038;SDS011;18549;42.286;22.688;2023-04-25T00:51:27;15.52;;;7.03;;
32038;SDS011;18549;42.286;22.688;2023-04-25T00:53:55;10.18;;;6.37;;
32038;SDS011;18549;42.286;22.688;2023-04-25T00:56:22;9.52;;;5.95;;
32038;SDS011;18549;42.286;22.688;2023-04-25T00:58:51;9.52;;;5.35;;
32038;SDS011;18549;42.286;22.688;2023-04-25T01:01:22;9.75;;;5.97;;
32038;SDS011;18549;42.286;22.688;2023-04-25T01:03:49;12.37;;;5.57;;
32038;SDS011;18549;42.286;22.688;2023-04-25T01:06:17;12.63;;;6.93;;
32038;SDS011;18549;42.286;22.688;2023-04-25T01:08:44;13.77;;;6.97;;
32038;SDS011;18549;42.286;22.688;2023-04-25T01:11:11;12.70;;;7.20;;
32038;SDS011;18549;42.286;22.688;2023-04-25T01:13:37;16.85;;;8.65;;
32038;SDS011;18549;42.286;22.688;2023-04-25T01:16:04;13.13;;;7.15;;
32038;SDS011;18549;42.286;22.688;2023-04-25T01:18:33;6.40;;;3.40;;
32038;SDS011;18549;42.286;22.688;2023-04-25T01:21:08;3.03;;;2.40;;
32038;SDS011;18549;42.286;22.688;2023-04-25T01:23:35;5.13;;;2.43;;
32038;SDS011;18549;42.286;22.688;2023-04-25T01:26:03;2.87;;;2.25;;
32038;SDS011;18549;42.286;22.688;2023-04-25T01:28:30;3.40;;;2.17;;
32038;SDS011;18549;42.286;22.688;2023-04-25T01:30:57;5.35;;;2.00;;
32038;SDS011;18549;42.286;22.688;2023-04-25T01:33:25;2.30;;;2.10;;
32038;SDS011;18549;42.286;22.688;2023-04-25T01:35:51;4.25;;;2.37;;
32038;SDS011;18549;42.286;22.688;2023-04-25T01:38:20;3.35;;;2.05;;
32038;SDS011;18549;42.286;22.688;2023-04-25T01:40:46;2.70;;;1.65;;
32038;SDS011;18549;42.286;22.688;2023-04-25T01:43:16;4.22;;;2.12;;
32038;SDS011;18549;42.286;22.688;2023-04-25T01:45:43;4.23;;;1.70;;
32038;SDS011;18549;42.286;22.688;2023-04-25T01:48:10;5.03;;;1.98;;
32038;SDS011;18549;42.286;22.688;2023-04-25T01:50:39;1.87;;;1.50;;
32038;SDS011;18549;42.286;22.688;2023-04-25T01:53:06;6.47;;;2.83;;
32038;SDS011;18549;42.286;22.688;2023-04-25T01:55:37;5.83;;;3.50;;
32038;SDS011;18549;42.286;22.688;2023-04-25T01:58:04;7.30;;;2.93;;
32038;SDS011;18549;42.286;22.688;2023-04-25T02:00:34;3.50;;;2.87;;
32038;SDS011;18549;42.286;22.688;2023-04-25T02:03:03;6.43;;;3.80;;
32038;SDS011;18549;42.286;22.688;2023-04-25T02:05:33;9.00;;;4.70;;
32038;SDS011;18549;42.286;22.688;2023-04-25T02:08:00;6.30;;;4.30;;
32038;SDS011;18549;42.286;22.688;2023-04-25T02:10:27;9.27;;;4.60;;
32038;SDS011;18549;42.286;22.688;2023-04-25T02:12:56;13.37;;;6.23;;
32038;SDS011;18549;42.286;22.688;2023-04-25T02:15:23;8.10;;;4.80;;
32038;SDS011;18549;42.286;22.688;2023-04-25T02:17:50;8.60;;;5.57;;
32038;SDS011;18549;42.286;22.688;2023-04-25T02:20:17;9.10;;;5.68;;
32038;SDS011;18549;42.286;22.688;2023-04-25T02:22:44;8.48;;;6.57;;
32038;SDS011;18549;42.286;22.688;2023-04-25T02:25:12;10.35;;;8.77;;
32038;SDS011;18549;42.286;22.688;2023-04-25T02:27:39;13.27;;;11.27;;
32038;SDS011;18549;42.286;22.688;2023-04-25T02:30:07;17.52;;;11.65;;
32038;SDS011;18549;42.286;22.688;2023-04-25T02:32:35;13.57;;;10.40;;
32038;SDS011;18549;42.286;22.688;2023-04-25T02:35:02;14.65;;;11.52;;
32038;SDS011;18549;42.286;22.688;2023-04-25T02:37:29;10.25;;;9.27;;
32038;SDS011;18549;42.286;22.688;2023-04-25T02:39:56;17.95;;;12.25;;
32038;SDS011;18549;42.286;22.688;2023-04-25T02:42:23;15.10;;;11.23;;
32038;SDS011;18549;42.286;22.688;2023-04-25T02:44:50;10.57;;;9.48;;
32038;SDS011;18549;42.286;22.688;2023-04-25T02:47:18;12.65;;;8.60;;
32038;SDS011;18549;42.286;22.688;2023-04-25T02:49:44;12.57;;;10.77;;
32038;SDS011;18549;42.286;22.688;2023-04-25T02:52:11;11.37;;;10.27;;
32038;SDS011;18549;42.286;22.688;2023-04-25T02:54:39;11.23;;;9.87;;
32038;SDS011;18549;42.286;22.688;2023-04-25T02:57:06;10.90;;;9.60;;
32038;SDS011;18549;42.286;22.688;2023-04-25T02:59:32;13.15;;;10.98;;
32038;SDS011;18549;42.286;22.688;2023-04-25T03:02:00;12.00;;;10.67;;
32038;SDS011;18549;42.286;22.688;2023-04-25T03:04:28;14.27;;;10.83;;
32038;SDS011;18549;42.286;22.688;2023-04-25T03:06:54;10.50;;;9.37;;
32038;SDS011;18549;42.286;22.688;2023-04-25T03:09:21;11.30;;;10.13;;
32038;SDS011;18549;42.286;22.688;2023-04-25T03:11:48;11.47;;;10.37;;
32038;SDS011;18549;42.286;22.688;2023-04-25T03:14:15;13.63;;;11.03;;
32038;SDS011;18549;42.286;22.688;2023-04-25T03:16:41;14.80;;;11.83;;
32038;SDS011;18549;42.286;22.688;2023-04-25T03:19:08;12.33;;;11.10;;
32038;SDS011;18549;42.286;22.688;2023-04-25T03:21:36;12.37;;;11.00;;
32038;SDS011;18549;42.286;22.688;2023-04-25T03:24:04;10.70;;;9.63;;
32038;SDS011;18549;42.286;22.688;2023-04-25T03:26:31;12.50;;;11.20;;
32038;SDS011;18549;42.286;22.688;2023-04-25T03:28:58;13.93;;;11.17;;
32038;SDS011;18549;42.286;22.688;2023-04-25T03:31:25;13.13;;;11.43;;
32038;SDS011;18549;42.286;22.688;2023-04-25T03:33:52;12.02;;;10.82;;
32038;SDS011;18549;42.286;22.688;2023-04-25T03:36:18;11.75;;;10.48;;
32038;SDS011;18549;42.286;22.688;2023-04-25T03:38:47;11.82;;;10.63;;
32038;SDS011;18549;42.286;22.688;2023-04-25T03:41:13;14.02;;;12.60;;
32038;SDS011;18549;42.286;22.688;2023-04-25T03:43:40;18.30;;;16.07;;
32038;SDS011;18549;42.286;22.688;2023-04-25T03:46:07;51.63;;;30.93;;
32038;SDS011;18549;42.286;22.688;2023-04-25T03:48:34;67.35;;;38.30;;
32038;SDS011;18549;42.286;22.688;2023-04-25T03:51:01;54.83;;;30.23;;
32038;SDS011;18549;42.286;22.688;2023-04-25T03:53:27;24.35;;;16.58;;
32038;SDS011;18549;42.286;22.688;2023-04-25T03:55:56;20.47;;;13.67;;
32038;SDS011;18549;42.286;22.688;2023-04-25T03:58:22;12.20;;;9.90;;
32038;SDS011;18549;42.286;22.688;2023-04-25T04:00:49;12.13;;;9.65;;
32038;SDS011;18549;42.286;22.688;2023-04-25T04:03:16;15.27;;;8.00;;
32038;SDS011;18549;42.286;22.688;2023-04-25T04:05:42;10.87;;;8.53;;
32038;SDS011;18549;42.286;22.688;2023-04-25T04:08:10;13.40;;;9.43;;
32038;SDS011;18549;42.286;22.688;2023-04-25T04:10:36;12.20;;;9.20;;
32038;SDS011;18549;42.286;22.688;2023-04-25T04:13:05;16.43;;;9.83;;
32038;SDS011;18549;42.286;22.688;2023-04-25T04:15:31;12.30;;;10.37;;
32038;SDS011;18549;42.286;22.688;2023-04-25T04:17:58;25.20;;;12.60;;
32038;SDS011;18549;42.286;22.688;2023-04-25T04:20:28;16.37;;;12.93;;
32038;SDS011;18549;42.286;22.688;2023-04-25T04:22:55;11.30;;;9.60;;
32038;SDS011;18549;42.286;22.688;2023-04-25T04:25:22;14.13;;;8.60;;
32038;SDS011;18549;42.286;22.688;2023-04-25T04:27:49;10.90;;;7.37;;
32038;SDS011;18549;42.286;22.688;2023-04-25T04:30:21;11.10;;;7.23;;
32038;SDS011;18549;42.286;22.688;2023-04-25T04:32:49;7.47;;;6.33;;
32038;SDS011;18549;42.286;22.688;2023-04-25T04:35:16;9.43;;;7.13;;
32038;SDS011;18549;42.286;22.688;2023-04-25T04:37:43;12.90;;;7.13;;
32038;SDS011;18549;42.286;22.688;2023-04-25T04:40:10;11.73;;;8.40;;
32038;SDS011;18549;42.286;22.688;2023-04-25T04:42:40;11.57;;;8.50;;
32038;SDS011;18549;42.286;22.688;2023-04-25T04:45:07;15.07;;;9.73;;
32038;SDS011;18549;42.286;22.688;2023-04-25T04:47:36;21.50;;;14.83;;
32038;SDS011;18549;42.286;22.688;2023-04-25T04:50:05;21.30;;;17.10;;
32038;SDS011;18549;42.286;22.688;2023-04-25T04:52:32;21.70;;;16.73;;
32038;SDS011;18549;42.286;22.688;2023-04-25T04:54:59;25.67;;;17.93;;
32038;SDS011;18549;42.286;22.688;2023-04-25T04:57:26;19.47;;;16.33;;
32038;SDS011;18549;42.286;22.688;2023-04-25T04:59:56;18.67;;;16.63;;
32038;SDS011;18549;42.286;22.688;2023-04-25T05:02:23;18.93;;;15.90;;
32038;SDS011;18549;42.286;22.688;2023-04-25T05:04:51;21.20;;;19.00;;
32038;SDS011;18549;42.286;22.688;2023-04-25T05:07:20;19.07;;;16.97;;
32038;SDS011;18549;42.286;22.688;2023-04-25T05:09:47;19.10;;;17.07;;
32038;SDS011;18549;42.286;22.688;2023-04-25T05:12:14;22.20;;;17.40;;
32038;SDS011;18549;42.286;22.688;2023-04-25T05:14:41;18.40;;;16.20;;
32038;SDS011;18549;42.286;22.688;2023-04-25T05:17:07;22.60;;;16.77;;
32038;SDS011;18549;42.286;22.688;2023-04-25T05:19:35;25.13;;;18.87;;
32038;SDS011;18549;42.286;22.688;2023-04-25T05:22:03;19.97;;;17.80;;
32038;SDS011;18549;42.286;22.688;2023-04-25T05:24:30;22.02;;;18.58;;
32038;SDS011;18549;42.286;22.688;2023-04-25T05:26:56;30.80;;;19.57;;
32038;SDS011;18549;42.286;22.688;2023-04-25T05:29:23;20.00;;;16.87;;
32038;SDS011;18549;42.286;22.688;2023-04-25T05:31:50;24.43;;;17.50;;
32038;SDS011;18549;42.286;22.688;2023-04-25T05:34:18;22.57;;;16.57;;
32038;SDS011;18549;42.286;22.688;2023-04-25T05:36:44;21.00;;;17.23;;
32038;SDS011;18549;42.286;22.688;2023-04-25T05:39:14;21.87;;;17.85;;
32038;SDS011;18549;42.286;22.688;2023-04-25T05:41:41;25.15;;;17.58;;
32038;SDS011;18549;42.286;22.688;2023-04-25T05:44:08;22.37;;;16.12;;
32038;SDS011;18549;42.286;22.688;2023-04-25T05:46:35;22.48;;;17.25;;
32038;SDS011;18549;42.286;22.688;2023-04-25T05:49:03;25.85;;;17.20;;
32038;SDS011;18549;42.286;22.688;2023-04-25T05:51:30;21.15;;;17.25;;
32038;SDS011;18549;42.286;22.688;2023-04-25T05:53:57;18.40;;;16.43;;
32038;SDS011;18549;42.286;22.688;2023-04-25T05:56:26;24.75;;;18.20;;
32038;SDS011;18549;42.286;22.688;2023-04-25T05:58:53;21.45;;;18.05;;
32038;SDS011;18549;42.286;22.688;2023-04-25T06:01:21;23.62;;;19.60;;
32038;SDS011;18549;42.286;22.688;2023-04-25T06:03:48;36.83;;;27.90;;
32038;SDS011;18549;42.286;22.688;2023-04-25T06:06:16;24.23;;;20.80;;
32038;SDS011;18549;42.286;22.688;2023-04-25T06:08:43;21.08;;;18.83;;
32038;SDS011;18549;42.286;22.688;2023-04-25T06:11:12;23.20;;;16.27;;
32038;SDS011;18549;42.286;22.688;2023-04-25T06:13:40;17.47;;;13.87;;
32038;SDS011;18549;42.286;22.688;2023-04-25T06:16:07;14.25;;;9.95;;
32038;SDS011;18549;42.286;22.688;2023-04-25T08:25:20;3.97;;;1.60;;
32038;SDS011;18549;42.286;22.688;2023-04-25T08:27:48;5.10;;;1.25;;
32038;SDS011;18549;42.286;22.688;2023-04-25T08:30:15;7.53;;;1.90;;
32038;SDS011;18549;42.286;22.688;2023-04-25T08:32:41;4.30;;;1.48;;
32038;SDS011;18549;42.286;22.688;2023-04-25T08:35:08;1.20;;;1.10;;
32038;SDS011;18549;42.286;22.688;2023-04-25T08:37:36;8.38;;;4.90;;
32038;SDS011;18549;42.286;22.688;2023-04-25T08:40:03;4.10;;;2.30;;
32038;SDS011;18549;42.286;22.688;2023-04-25T08:42:34;2.78;;;1.60;;
32038;SDS011;18549;42.286;22.688;2023-04-25T08:45:02;1.83;;;1.30;;
32038;SDS011;18549;42.286;22.688;2023-04-25T08:47:29;2.03;;;1.12;;
32038;SDS011;18549;42.286;22.688;2023-04-25T08:49:59;2.85;;;1.73;;
32038;SDS011;18549;42.286;22.688;2023-04-25T08:52:28;2.00;;;1.05;;
32038;SDS011;18549;42.286;22.688;2023-04-25T08:55:01;5.78;;;1.25;;
32038;SDS011;18549;42.286;22.688;2023-04-25T08:57:29;2.72;;;1.10;;
32038;SDS011;18549;42.286;22.688;2023-04-25T09:00:04;4.18;;;1.73;;
32038;SDS011;18549;42.286;22.688;2023-04-25T09:02:34;5.35;;;1.55;;
32038;SDS011;18549;42.286;22.688;2023-04-25T09:05:01;6.53;;;1.92;;
32038;SDS011;18549;42.286;22.688;2023-04-25T09:07:34;10.98;;;4.53;;
32038;SDS011;18549;42.286;22.688;2023-04-25T09:10:01;1.80;;;1.50;;
32038;SDS011;18549;42.286;22.688;2023-04-25T09:12:28;2.92;;;1.50;;
32038;SDS011;18549;42.286;22.688;2023-04-25T09:15:04;4.95;;;1.80;;
32038;SDS011;18549;42.286;22.688;2023-04-25T09:17:32;6.20;;;1.87;;
32038;SDS011;18549;42.286;22.688;2023-04-25T09:20:06;4.72;;;2.28;;
32038;SDS011;18549;42.286;22.688;2023-04-25T09:22:34;3.90;;;1.60;;
32038;SDS011;18549;42.286;22.688;2023-04-25T09:25:03;9.15;;;2.22;;
32038;SDS011;18549;42.286;22.688;2023-04-25T09:27:35;4.53;;;2.97;;
32038;SDS011;18549;42.286;22.688;2023-04-25T09:30:04;4.32;;;1.65;;
32038;SDS011;18549;42.286;22.688;2023-04-25T09:32:31;5.25;;;1.92;;
32038;SDS011;18549;42.286;22.688;2023-04-25T09:34:58;1.80;;;1.23;;
32038;SDS011;18549;42.286;22.688;2023-04-25T09:37:25;3.75;;;2.45;;
32038;SDS011;18549;42.286;22.688;2023-04-25T09:39:53;4.53;;;2.08;;
32038;SDS011;18549;42.286;22.688;2023-04-25T09:42:24;1.67;;;1.15;;
32038;SDS011;18549;42.286;22.688;2023-04-25T09:44:54;4.93;;;1.35;;
32038;SDS011;18549;42.286;22.688;2023-04-25T09:47:23;1.20;;;1.10;;
32038;SDS011;18549;42.286;22.688;2023-04-25T09:49:53;1.65;;;1.02;;
32038;SDS011;18549;42.286;22.688;2023-04-25T09:52:21;5.00;;;2.28;;
32038;SDS011;18549;42.286;22.688;2023-04-25T09:54:49;6.37;;;2.22;;
32038;SDS011;18549;42.286;22.688;2023-04-25T09:57:19;3.90;;;2.75;;
32038;SDS011;18549;42.286;22.688;2023-04-25T09:59:51;2.55;;;1.40;;
32038;SDS011;18549;42.286;22.688;2023-04-25T10:02:19;1.45;;;1.10;;
32038;SDS011;18549;42.286;22.688;2023-04-25T10:04:48;1.02;;;0.90;;
32038;SDS011;18549;42.286;22.688;2023-04-25T10:07:18;3.60;;;1.92;;
32038;SDS011;18549;42.286;22.688;2023-04-25T10:09:47;2.17;;;1.05;;
32038;SDS011;18549;42.286;22.688;2023-04-25T10:12:16;5.03;;;1.62;;
32038;SDS011;18549;42.286;22.688;2023-04-25T10:14:43;2.22;;;1.42;;
32038;SDS011;18549;42.286;22.688;2023-04-25T10:17:11;3.67;;;2.28;;
32038;SDS011;18549;42.286;22.688;2023-04-25T10:19:38;4.28;;;1.70;;
32038;SDS011;18549;42.286;22.688;2023-04-25T10:22:08;1.37;;;1.23;;
32038;SDS011;18549;42.286;22.688;2023-04-25T10:24:41;2.17;;;1.20;;
32038;SDS011;18549;42.286;22.688;2023-04-25T10:27:09;2.00;;;0.93;;
32038;SDS011;18549;42.286;22.688;2023-04-25T10:29:37;3.15;;;1.42;;
32038;SDS011;18549;42.286;22.688;2023-04-25T10:32:05;3.42;;;1.70;;
32038;SDS011;18549;42.286;22.688;2023-04-25T10:34:38;3.40;;;1.25;;
32038;SDS011;18549;42.286;22.688;2023-04-25T10:37:09;1.52;;;1.23;;
32038;SDS011;18549;42.286;22.688;2023-04-25T10:39:38;2.97;;;1.55;;
32038;SDS011;18549;42.286;22.688;2023-04-25T10:42:07;1.85;;;1.35;;
32038;SDS011;18549;42.286;22.688;2023-04-25T10:44:36;1.90;;;1.50;;
32038;SDS011;18549;42.286;22.688;2023-04-25T10:47:05;1.75;;;1.15;;
32038;SDS011;18549;42.286;22.688;2023-04-25T10:49:34;5.37;;;1.48;;
32038;SDS011;18549;42.286;22.688;2023-04-25T10:52:13;7.70;;;1.75;;
32038;SDS011;18549;42.286;22.688;2023-04-25T10:54:42;3.58;;;1.85;;
32038;SDS011;18549;42.286;22.688;2023-04-25T10:57:28;4.43;;;0.90;;
32038;SDS011;18549;42.286;22.688;2023-04-25T10:59:58;3.55;;;1.48;;
32038;SDS011;18549;42.286;22.688;2023-04-25T11:02:26;5.22;;;2.12;;
32038;SDS011;18549;42.286;22.688;2023-04-25T11:04:54;6.00;;;3.37;;
32038;SDS011;18549;42.286;22.688;2023-04-25T11:07:26;6.97;;;1.27;;
32038;SDS011;18549;42.286;22.688;2023-04-25T11:10:01;5.05;;;3.05;;
32038;SDS011;18549;42.286;22.688;2023-04-25T11:12:30;6.50;;;4.18;;
32038;SDS011;18549;42.286;22.688;2023-04-25T11:15:01;8.45;;;3.15;;
32038;SDS011;18549;42.286;22.688;2023-04-25T11:17:29;9.15;;;2.10;;
32038;SDS011;18549;42.286;22.688;2023-04-25T11:19:55;4.25;;;1.75;;
32038;SDS011;18549;42.286;22.688;2023-04-25T11:22:22;3.22;;;1.80;;
32038;SDS011;18549;42.286;22.688;2023-04-25T11:24:52;3.72;;;2.33;;
32038;SDS011;18549;42.286;22.688;2023-04-25T11:27:19;6.30;;;2.87;;
32038;SDS011;18549;42.286;22.688;2023-04-25T11:29:47;3.20;;;2.30;;
32038;SDS011;18549;42.286;22.688;2023-04-25T11:32:14;5.28;;;2.58;;
32038;SDS011;18549;42.286;22.688;2023-04-25T11:34:43;3.87;;;2.45;;
32038;SDS011;18549;42.286;22.688;2023-04-25T11:37:10;4.07;;;2.30;;
32038;SDS011;18549;42.286;22.688;2023-04-25T11:39:40;13.13;;;4.47;;
32038;SDS011;18549;42.286;22.688;2023-04-25T11:42:11;4.60;;;3.08;;
32038;SDS011;18549;42.286;22.688;2023-04-25T11:44:38;8.43;;;3.80;;
32038;SDS011;18549;42.286;22.688;2023-04-25T11:47:05;7.15;;;3.33;;
32038;SDS011;18549;42.286;22.688;2023-04-25T11:49:32;4.30;;;2.95;;
32038;SDS011;18549;42.286;22.688;2023-04-25T11:52:00;6.32;;;2.10;;
32038;SDS011;18549;42.286;22.688;2023-04-25T11:54:27;5.30;;;2.17;;
32038;SDS011;18549;42.286;22.688;2023-04-25T11:56:55;2.62;;;1.50;;
32038;SDS011;18549;42.286;22.688;2023-04-25T11:59:24;7.78;;;3.12;;
32038;SDS011;18549;42.286;22.688;2023-04-25T12:01:52;10.63;;;7.68;;
32038;SDS011;18549;42.286;22.688;2023-04-25T12:04:19;8.25;;;5.65;;
32038;SDS011;18549;42.286;22.688;2023-04-25T12:06:47;9.13;;;3.83;;
32038;SDS011;18549;42.286;22.688;2023-04-25T12:22:25;7.78;;;3.75;;
32038;SDS011;18549;42.286;22.688;2023-04-25T12:24:51;7.72;;;4.40;;
32038;SDS011;18549;42.286;22.688;2023-04-25T12:27:19;34.45;;;19.67;;
32038;SDS011;18549;42.286;22.688;2023-04-25T12:29:52;37.60;;;22.65;;
32038;SDS011;18549;42.286;22.688;2023-04-25T12:32:20;5.85;;;5.10;;
32038;SDS011;18549;42.286;22.688;2023-04-25T12:34:47;8.27;;;4.97;;
32038;SDS011;18549;42.286;22.688;2023-04-25T12:37:14;4.10;;;3.00;;
32038;SDS011;18549;42.286;22.688;2023-04-25T12:39:42;4.93;;;2.20;;
32038;SDS011;18549;42.286;22.688;2023-04-25T12:42:09;9.80;;;5.03;;
32038;SDS011;18549;42.286;22.688;2023-04-25T12:44:37;8.57;;;4.47;;
32038;SDS011;18549;42.286;22.688;2023-04-25T12:47:05;8.05;;;4.85;;
32038;SDS011;18549;42.286;22.688;2023-04-25T12:49:32;11.85;;;3.53;;
32038;SDS011;18549;42.286;22.688;2023-04-25T12:52:00;6.47;;;1.95;;
32038;SDS011;18549;42.286;22.688;2023-04-25T12:54:27;7.45;;;3.03;;
32038;SDS011;18549;42.286;22.688;2023-04-25T12:56:56;8.93;;;2.60;;
32038;SDS011;18549;42.286;22.688;2023-04-25T12:59:24;3.15;;;2.12;;
32038;SDS011;18549;42.286;22.688;2023-04-25T13:01:51;4.30;;;2.92;;
32038;SDS011;18549;42.286;22.688;2023-04-25T13:04:19;4.12;;;2.55;;
32038;SDS011;18549;42.286;22.688;2023-04-25T13:06:46;4.93;;;3.20;;
32038;SDS011;18549;42.286;22.688;2023-04-25T13:09:14;4.62;;;2.10;;
32038;SDS011;18549;42.286;22.688;2023-04-25T13:11:42;2.58;;;1.98;;
32038;SDS011;18549;42.286;22.688;2023-04-25T13:14:10;5.05;;;2.12;;
32038;SDS011;18549;42.286;22.688;2023-04-25T13:16:37;3.03;;;2.08;;
32038;SDS011;18549;42.286;22.688;2023-04-25T13:19:06;2.35;;;2.10;;
32038;SDS011;18549;42.286;22.688;2023-04-25T13:21:36;4.03;;;2.28;;
32038;SDS011;18549;42.286;22.688;2023-04-25T13:24:04;4.12;;;2.55;;
32038;SDS011;18549;42.286;22.688;2023-04-25T13:26:33;4.75;;;2.97;;
32038;SDS011;18549;42.286;22.688;2023-04-25T13:29:00;2.92;;;2.37;;
32038;SDS011;18549;42.286;22.688;2023-04-25T13:31:30;4.25;;;2.47;;
32038;SDS011;18549;42.286;22.688;2023-04-25T13:33:58;5.95;;;3.20;;
32038;SDS011;18549;42.286;22.688;2023-04-25T13:36:25;4.18;;;2.42;;
32038;SDS011;18549;42.286;22.688;2023-04-25T13:38:53;4.90;;;3.95;;
32038;SDS011;18549;42.286;22.688;2023-04-25T13:41:20;6.87;;;3.67;;
32038;SDS011;18549;42.286;22.688;2023-04-25T13:43:47;4.57;;;3.17;;
32038;SDS011;18549;42.286;22.688;2023-04-25T13:46:15;2.92;;;2.42;;
32038;SDS011;18549;42.286;22.688;2023-04-25T13:48:44;5.50;;;3.62;;
32038;SDS011;18549;42.286;22.688;2023-04-25T13:51:14;8.95;;;7.53;;
32038;SDS011;18549;42.286;22.688;2023-04-25T13:53:43;4.18;;;3.30;;
32038;SDS011;18549;42.286;22.688;2023-04-25T13:56:11;7.95;;;5.95;;
32038;SDS011;18549;42.286;22.688;2023-04-25T13:58:38;9.40;;;6.53;;
32038;SDS011;18549;42.286;22.688;2023-04-25T14:01:06;4.10;;;3.10;;
32038;SDS011;18549;42.286;22.688;2023-04-25T14:03:33;4.12;;;2.70;;
32038;SDS011;18549;42.286;22.688;2023-04-25T14:06:02;3.20;;;2.60;;
32038;SDS011;18549;42.286;22.688;2023-04-25T14:08:30;3.83;;;3.33;;
32038;SDS011;18549;42.286;22.688;2023-04-25T14:10:58;4.30;;;3.03;;
32038;SDS011;18549;42.286;22.688;2023-04-25T14:13:25;4.72;;;2.97;;
32038;SDS011;18549;42.286;22.688;2023-04-25T14:15:53;7.95;;;3.15;;
32038;SDS011;18549;42.286;22.688;2023-04-25T14:18:21;5.37;;;3.05;;
32038;SDS011;18549;42.286;22.688;2023-04-25T14:20:48;4.60;;;2.42;;
32038;SDS011;18549;42.286;22.688;2023-04-25T14:23:17;4.82;;;3.62;;
32038;SDS011;18549;42.286;22.688;2023-04-25T14:25:45;6.90;;;4.57;;
32038;SDS011;18549;42.286;22.688;2023-04-25T14:28:12;6.68;;;3.72;;
32038;SDS011;18549;42.286;22.688;2023-04-25T14:30:40;6.95;;;3.53;;
32038;SDS011;18549;42.286;22.688;2023-04-25T14:33:07;9.05;;;5.95;;
32038;SDS011;18549;42.286;22.688;2023-04-25T14:35:35;10.15;;;5.00;;
32038;SDS011;18549;42.286;22.688;2023-04-25T14:38:02;6.20;;;3.55;;
32038;SDS011;18549;42.286;22.688;2023-04-25T14:40:32;3.33;;;2.47;;
32038;SDS011;18549;42.286;22.688;2023-04-25T14:42:59;9.77;;;6.50;;
32038;SDS011;18549;42.286;22.688;2023-04-25T14:45:26;9.05;;;6.32;;
32038;SDS011;18549;42.286;22.688;2023-04-25T14:47:54;17.83;;;10.55;;
32038;SDS011;18549;42.286;22.688;2023-04-25T14:50:22;5.60;;;2.60;;
32038;SDS011;18549;42.286;22.688;2023-04-25T14:52:49;2.03;;;1.73;;
32038;SDS011;18549;42.286;22.688;2023-04-25T14:55:18;4.57;;;2.15;;
32038;SDS011;18549;42.286;22.688;2023-04-25T14:57:47;6.53;;;3.30;;
32038;SDS011;18549;42.286;22.688;2023-04-25T15:00:14;4.22;;;2.30;;
32038;SDS011;18549;42.286;22.688;2023-04-25T15:02:42;4.50;;;3.12;;
32038;SDS011;18549;42.286;22.688;2023-04-25T15:05:09;4.97;;;3.22;;
32038;SDS011;18549;42.286;22.688;2023-04-25T15:07:37;7.15;;;3.20;;
32038;SDS011;18549;42.286;22.688;2023-04-25T15:10:05;11.65;;;4.85;;
32038;SDS011;18549;42.286;22.688;2023-04-25T15:12:38;15.43;;;5.03;;
32038;SDS011;18549;42.286;22.688;2023-04-25T15:15:08;6.30;;;3.22;;
32038;SDS011;18549;42.286;22.688;2023-04-25T15:17:37;5.85;;;3.40;;
32038;SDS011;18549;42.286;22.688;2023-04-25T15:20:05;7.15;;;3.30;;
32038;SDS011;18549;42.286;22.688;2023-04-25T15:22:35;5.70;;;2.40;;
32038;SDS011;18549;42.286;22.688;2023-04-25T15:25:02;8.25;;;3.72;;
32038;SDS011;18549;42.286;22.688;2023-04-25T15:27:31;5.95;;;4.20;;
32038;SDS011;18549;42.286;22.688;2023-04-25T15:29:59;9.90;;;5.80;;
32038;SDS011;18549;42.286;22.688;2023-04-25T15:32:28;20.52;;;9.13;;
32038;SDS011;18549;42.286;22.688;2023-04-25T15:34:56;18.90;;;10.60;;
32038;SDS011;18549;42.286;22.688;2023-04-25T15:37:23;12.73;;;7.37;;
32038;SDS011;18549;42.286;22.688;2023-04-25T15:39:51;8.65;;;5.80;;
32038;SDS011;18549;42.286;22.688;2023-04-25T15:42:29;12.20;;;8.02;;
32038;SDS011;18549;42.286;22.688;2023-04-25T15:44:57;15.82;;;8.02;;
32038;SDS011;18549;42.286;22.688;2023-04-25T15:47:24;14.38;;;8.05;;
32038;SDS011;18549;42.286;22.688;2023-04-25T15:49:53;14.02;;;8.88;;
32038;SDS011;18549;42.286;22.688;2023-04-25T15:52:20;19.23;;;13.95;;
32038;SDS011;18549;42.286;22.688;2023-04-25T15:54:48;17.65;;;12.73;;
32038;SDS011;18549;42.286;22.688;2023-04-25T15:57:15;18.35;;;12.88;;
32038;SDS011;18549;42.286;22.688;2023-04-25T15:59:42;17.02;;;9.18;;
32038;SDS011;18549;42.286;22.688;2023-04-25T16:02:11;10.77;;;6.97;;
32038;SDS011;18549;42.286;22.688;2023-04-25T16:04:39;15.65;;;7.80;;
32038;SDS011;18549;42.286;22.688;2023-04-25T16:07:08;12.85;;;7.78;;
32038;SDS011;18549;42.286;22.688;2023-04-25T16:09:35;10.80;;;6.65;;
32038;SDS011;18549;42.286;22.688;2023-04-25T16:12:03;10.30;;;6.22;;
32038;SDS011;18549;42.286;22.688;2023-04-25T16:14:31;19.17;;;6.22;;
32038;SDS011;18549;42.286;22.688;2023-04-25T16:16:59;11.45;;;7.57;;
32038;SDS011;18549;42.286;22.688;2023-04-25T16:19:26;10.30;;;7.78;;
32038;SDS011;18549;42.286;22.688;2023-04-25T16:21:54;14.43;;;9.02;;
32038;SDS011;18549;42.286;22.688;2023-04-25T16:24:23;10.77;;;6.32;;
32038;SDS011;18549;42.286;22.688;2023-04-25T16:26:50;10.40;;;5.22;;
32038;SDS011;18549;42.286;22.688;2023-04-25T16:29:17;6.93;;;4.28;;
32038;SDS011;18549;42.286;22.688;2023-04-25T16:31:45;9.00;;;4.72;;
32038;SDS011;18549;42.286;22.688;2023-04-25T16:34:12;6.78;;;4.50;;
32038;SDS011;18549;42.286;22.688;2023-04-25T16:36:40;7.03;;;4.60;;
32038;SDS011;18549;42.286;22.688;2023-04-25T16:39:08;9.45;;;5.32;;
32038;SDS011;18549;42.286;22.688;2023-04-25T16:41:37;7.67;;;4.53;;
32038;SDS011;18549;42.286;22.688;2023-04-25T16:44:05;9.80;;;5.53;;
32038;SDS011;18549;42.286;22.688;2023-04-25T16:46:33;24.37;;;13.40;;
32038;SDS011;18549;42.286;22.688;2023-04-25T16:49:00;12.40;;;10.02;;
32038;SDS011;18549;42.286;22.688;2023-04-25T16:51:28;11.02;;;7.43;;